sensor_id;sensor_type;location;lat;lon;timestamp;pressure;altitude;pressure_sealevel;temperature;humidity
54872;BME280;43914;57.680;11.982;2023-03-23T00:01:14;98907.90;;;4.24;100.00
54872;BME280;43914;57.680;11.982;2023-03-23T00:03:41;98908.36;;;4.23;100.00
54872;BME280;43914;57.680;11.982;2023-03-23T00:06:08;98905.30;;;4.19;100.00
54872;BME280;43914;57.680;11.982;2023-03-23T00:08:35;98904.40;;;4.16;100.00
54872;BME280;43914;57.680;11.982;2023-03-23T00:11:14;98896.13;;;4.14;100.00
54872;BME280;43914;57.680;11.982;2023-03-23T00:13:42;98891.49;;;4.13;100.00
54872;BME280;43914;57.680;11.982;2023-03-23T00:16:08;98888.17;;;4.13;100.00
54872;BME280;43914;57.680;11.982;2023-03-23T00:18:42;98888.98;;;4.12;100.00
54872;BME280;43914;57.680;11.982;2023-03-23T00:21:08;98893.18;;;4.11;100.00
54872;BME280;43914;57.680;11.982;2023-03-23T00:23:33;98886.88;;;4.10;100.00
54872;BME280;43914;57.680;11.982;2023-03-23T00:25:58;98887.29;;;4.10;100.00
54872;BME280;43914;57.680;11.982;2023-03-23T00:28:26;98884.34;;;4.09;100.00
54872;BME280;43914;57.680;11.982;2023-03-23T00:30:59;98886.21;;;4.09;100.00
54872;BME280;43914;57.680;11.982;2023-03-23T00:33:30;98888.18;;;4.08;100.00
54872;BME280;43914;57.680;11.982;2023-03-23T00:35:59;98883.80;;;4.09;100.00
54872;BME280;43914;57.680;11.982;2023-03-23T00:38:25;98882.88;;;4.11;100.00
54872;BME280;43914;57.680;11.982;2023-03-23T00:40:51;98882.88;;;4.14;100.00
54872;BME280;43914;57.680;11.982;2023-03-23T00:43:18;98886.71;;;4.19;100.00
54872;BME280;43914;57.680;11.982;2023-03-23T00:45:44;98886.70;;;4.20;100.00
54872;BME280;43914;57.680;11.982;2023-03-23T00:48:15;98888.44;;;4.25;100.00
54872;BME280;43914;57.680;11.982;2023-03-23T00:50:40;98879.29;;;4.27;100.00
54872;BME280;43914;57.680;11.982;2023-03-23T00:53:07;98884.11;;;4.31;100.00
54872;BME280;43914;57.680;11.982;2023-03-23T00:55:33;98881.19;;;4.33;100.00
54872;BME280;43914;57.680;11.982;2023-03-23T00:57:59;98879.54;;;4.37;100.00
54872;BME280;43914;57.680;11.982;2023-03-23T01:00:24;98873.72;;;4.40;100.00
54872;BME280;43914;57.680;11.982;2023-03-23T01:02:53;98873.02;;;4.44;100.00
54872;BME280;43914;57.680;11.982;2023-03-23T01:05:19;98873.00;;;4.47;100.00
54872;BME280;43914;57.680;11.982;2023-03-23T01:07:45;98866.98;;;4.47;100.00
54872;BME280;43914;57.680;11.982;2023-03-23T01:10:11;98873.94;;;4.54;100.00
54872;BME280;43914;57.680;11.982;2023-03-23T01:12:42;98869.44;;;4.56;100.00
54872;BME280;43914;57.680;11.982;2023-03-23T01:15:08;98871.89;;;4.59;100.00
54872;BME280;43914;57.680;11.982;2023-03-23T01:17:34;98870.71;;;4.61;100.00
54872;BME280;43914;57.680;11.982;2023-03-23T01:20:00;98868.39;;;4.64;100.00
54872;BME280;43914;57.680;11.982;2023-03-23T01:22:25;98869.54;;;4.65;100.00
54872;BME280;43914;57.680;11.982;2023-03-23T01:24:51;98860.05;;;4.64;100.00
54872;BME280;43914;57.680;11.982;2023-03-23T01:27:16;98864.33;;;4.67;100.00
54872;BME280;43914;57.680;11.982;2023-03-23T01:29:42;98864.56;;;4.66;100.00
54872;BME280;43914;57.680;11.982;2023-03-23T01:32:07;98864.35;;;4.65;100.00
54872;BME280;43914;57.680;11.982;2023-03-23T01:34:32;98861.94;;;4.65;100.00
54872;BME280;43914;57.680;11.982;2023-03-23T01:36:58;98858.89;;;4.63;100.00
54872;BME280;43914;57.680;11.982;2023-03-23T01:39:24;98858.42;;;4.60;100.00
54872;BME280;43914;57.680;11.982;2023-03-23T01:41:49;98855.45;;;4.57;100.00
54872;BME280;43914;57.680;11.982;2023-03-23T01:46:40;98856.09;;;4.52;100.00
54872;BME280;43914;57.680;11.982;2023-03-23T01:49:10;98851.64;;;4.49;100.00
54872;BME280;43914;57.680;11.982;2023-03-23T01:51:45;98845.48;;;4.46;100.00
54872;BME280;43914;57.680;11.982;2023-03-23T01:54:13;98847.14;;;4.42;100.00
54872;BME280;43914;57.680;11.982;2023-03-23T01:56:47;98845.85;;;4.38;100.00
54872;BME280;43914;57.680;11.982;2023-03-23T01:59:14;98838.83;;;4.33;100.00
54872;BME280;43914;57.680;11.982;2023-03-23T02:01:41;98843.17;;;4.33;100.00
54872;BME280;43914;57.680;11.982;2023-03-23T02:04:13;98837.98;;;4.29;100.00
54872;BME280;43914;57.680;11.982;2023-03-23T02:06:40;98832.25;;;4.25;100.00
54872;BME280;43914;57.680;11.982;2023-03-23T02:09:06;98834.12;;;4.23;100.00
54872;BME280;43914;57.680;11.982;2023-03-23T02:11:32;98833.59;;;4.23;100.00
54872;BME280;43914;57.680;11.982;2023-03-23T02:13:58;98830.73;;;4.21;100.00
54872;BME280;43914;57.680;11.982;2023-03-23T02:33:38;98807.64;;;4.52;100.00
54872;BME280;43914;57.680;11.982;2023-03-23T02:36:13;98804.81;;;4.56;100.00
54872;BME280;43914;57.680;11.982;2023-03-23T02:41:29;98794.65;;;4.67;100.00
54872;BME280;43914;57.680;11.982;2023-03-23T02:43:56;98786.66;;;4.71;100.00
54872;BME280;43914;57.680;11.982;2023-03-23T02:46:23;98780.38;;;4.74;100.00
54872;BME280;43914;57.680;11.982;2023-03-23T02:48:53;98777.24;;;4.79;100.00
54872;BME280;43914;57.680;11.982;2023-03-23T02:51:22;98775.55;;;4.83;100.00
54872;BME280;43914;57.680;11.982;2023-03-23T02:53:51;98775.08;;;4.85;100.00
54872;BME280;43914;57.680;11.982;2023-03-23T02:56:21;98769.08;;;4.88;100.00
54872;BME280;43914;57.680;11.982;2023-03-23T02:58:49;98765.27;;;4.91;100.00
54872;BME280;43914;57.680;11.982;2023-03-23T03:03:58;98765.66;;;5.01;100.00
54872;BME280;43914;57.680;11.982;2023-03-23T03:17:35;98753.38;;;5.11;100.00
54872;BME280;43914;57.680;11.982;2023-03-23T03:20:03;98753.25;;;5.12;100.00
54872;BME280;43914;57.680;11.982;2023-03-23T03:22:37;98746.94;;;5.11;100.00
54872;BME280;43914;57.680;11.982;2023-03-23T03:25:04;98747.92;;;5.12;100.00
54872;BME280;43914;57.680;11.982;2023-03-23T03:27:31;98746.86;;;5.12;100.00
54872;BME280;43914;57.680;11.982;2023-03-23T03:29:59;98740.77;;;5.12;100.00
54872;BME280;43914;57.680;11.982;2023-03-23T03:32:34;98742.04;;;5.15;100.00
54872;BME280;43914;57.680;11.982;2023-03-23T03:35:04;98742.66;;;5.14;100.00
54872;BME280;43914;57.680;11.982;2023-03-23T03:37:38;98744.52;;;5.16;100.00
54872;BME280;43914;57.680;11.982;2023-03-23T03:40:08;98742.67;;;5.17;100.00
54872;BME280;43914;57.680;11.982;2023-03-23T03:42:40;98740.92;;;5.17;100.00
54872;BME280;43914;57.680;11.982;2023-03-23T03:45:08;98733.58;;;5.17;100.00
54872;BME280;43914;57.680;11.982;2023-03-23T03:47:34;98732.73;;;5.18;100.00
54872;BME280;43914;57.680;11.982;2023-03-23T03:50:00;98732.02;;;5.18;100.00
54872;BME280;43914;57.680;11.982;2023-03-23T03:52:26;98731.13;;;5.18;100.00
54872;BME280;43914;57.680;11.982;2023-03-23T03:54:53;98730.67;;;5.18;100.00
54872;BME280;43914;57.680;11.982;2023-03-23T03:57:19;98732.98;;;5.18;100.00
54872;BME280;43914;57.680;11.982;2023-03-23T03:59:45;98733.46;;;5.18;100.00
54872;BME280;43914;57.680;11.982;2023-03-23T04:02:11;98734.48;;;5.18;100.00
54872;BME280;43914;57.680;11.982;2023-03-23T04:04:40;98734.02;;;5.19;100.00
54872;BME280;43914;57.680;11.982;2023-03-23T04:07:07;98728.99;;;5.17;100.00
54872;BME280;43914;57.680;11.982;2023-03-23T04:09:36;98729.24;;;5.18;100.00
54872;BME280;43914;57.680;11.982;2023-03-23T04:12:02;98724.45;;;5.16;100.00
54872;BME280;43914;57.680;11.982;2023-03-23T04:14:28;98721.94;;;5.15;100.00
54872;BME280;43914;57.680;11.982;2023-03-23T04:16:53;98715.38;;;5.15;100.00
54872;BME280;43914;57.680;11.982;2023-03-23T04:19:22;98715.58;;;5.15;100.00
54872;BME280;43914;57.680;11.982;2023-03-23T04:21:48;98712.11;;;5.16;100.00
54872;BME280;43914;57.680;11.982;2023-03-23T04:24:15;98711.30;;;5.17;100.00
54872;BME280;43914;57.680;11.982;2023-03-23T04:26:41;98712.77;;;5.16;100.00
54872;BME280;43914;57.680;11.982;2023-03-23T04:29:09;98712.64;;;5.17;100.00
54872;BME280;43914;57.680;11.982;2023-03-23T04:31:35;98709.87;;;5.18;100.00
54872;BME280;43914;57.680;11.982;2023-03-23T04:34:01;98703.67;;;5.18;100.00
54872;BME280;43914;57.680;11.982;2023-03-23T04:36:27;98698.64;;;5.17;100.00
54872;BME280;43914;57.680;11.982;2023-03-23T04:38:57;98692.90;;;5.16;100.00
54872;BME280;43914;57.680;11.982;2023-03-23T04:41:22;98693.14;;;5.16;100.00
54872;BME280;43914;57.680;11.982;2023-03-23T04:43:49;98694.07;;;5.14;100.00
54872;BME280;43914;57.680;11.982;2023-03-23T04:46:18;98690.77;;;5.12;100.00
54872;BME280;43914;57.680;11.982;2023-03-23T04:48:44;98690.92;;;5.10;100.00
54872;BME280;43914;57.680;11.982;2023-03-23T04:51:11;98691.44;;;5.10;100.00
54872;BME280;43914;57.680;11.982;2023-03-23T04:53:37;98688.40;;;5.07;100.00
54872;BME280;43914;57.680;11.982;2023-03-23T04:56:03;98692.64;;;5.04;100.00
54872;BME280;43914;57.680;11.982;2023-03-23T04:58:29;98689.77;;;5.02;100.00
54872;BME280;43914;57.680;11.982;2023-03-23T05:01:02;98688.78;;;5.00;100.00
54872;BME280;43914;57.680;11.982;2023-03-23T05:03:29;98684.92;;;4.98;100.00
54872;BME280;43914;57.680;11.982;2023-03-23T05:05:55;98680.27;;;4.94;100.00
54872;BME280;43914;57.680;11.982;2023-03-23T05:08:22;98682.27;;;4.92;100.00
54872;BME280;43914;57.680;11.982;2023-03-23T05:10:54;98681.16;;;4.90;100.00
54872;BME280;43914;57.680;11.982;2023-03-23T05:13:20;98679.16;;;4.90;100.00
54872;BME280;43914;57.680;11.982;2023-03-23T05:15:46;98671.50;;;4.90;100.00
54872;BME280;43914;57.680;11.982;2023-03-23T05:18:12;98673.27;;;4.90;100.00
54872;BME280;43914;57.680;11.982;2023-03-23T05:20:37;98671.62;;;4.91;100.00
54872;BME280;43914;57.680;11.982;2023-03-23T05:23:03;98667.69;;;4.91;100.00
54872;BME280;43914;57.680;11.982;2023-03-23T05:25:29;98664.86;;;4.91;100.00
54872;BME280;43914;57.680;11.982;2023-03-23T05:27:55;98666.43;;;4.93;100.00
54872;BME280;43914;57.680;11.982;2023-03-23T05:30:21;98667.41;;;4.92;100.00
54872;BME280;43914;57.680;11.982;2023-03-23T05:32:47;98665.97;;;4.92;100.00
54872;BME280;43914;57.680;11.982;2023-03-23T05:35:17;98666.44;;;4.93;100.00
54872;BME280;43914;57.680;11.982;2023-03-23T05:37:43;98666.02;;;4.92;100.00
54872;BME280;43914;57.680;11.982;2023-03-23T05:40:10;98661.96;;;4.93;100.00
54872;BME280;43914;57.680;11.982;2023-03-23T05:42:38;98665.20;;;4.93;100.00
54872;BME280;43914;57.680;11.982;2023-03-23T05:45:07;98663.77;;;4.93;100.00
54872;BME280;43914;57.680;11.982;2023-03-23T05:47:35;98657.41;;;4.91;100.00
54872;BME280;43914;57.680;11.982;2023-03-23T05:50:01;98659.35;;;4.94;100.00
54872;BME280;43914;57.680;11.982;2023-03-23T05:52:27;98655.58;;;4.95;100.00
54872;BME280;43914;57.680;11.982;2023-03-23T05:54:53;98654.64;;;4.95;100.00
54872;BME280;43914;57.680;11.982;2023-03-23T05:57:18;98652.77;;;4.96;100.00
54872;BME280;43914;57.680;11.982;2023-03-23T05:59:47;98654.02;;;4.97;100.00
54872;BME280;43914;57.680;11.982;2023-03-23T06:02:13;98655.55;;;4.99;100.00
54872;BME280;43914;57.680;11.982;2023-03-23T06:04:40;98654.13;;;4.99;100.00
54872;BME280;43914;57.680;11.982;2023-03-23T06:07:07;98656.56;;;5.03;100.00
54872;BME280;43914;57.680;11.982;2023-03-23T06:09:33;98659.19;;;5.06;100.00
54872;BME280;43914;57.680;11.982;2023-03-23T06:11:58;98659.55;;;5.08;100.00
54872;BME280;43914;57.680;11.982;2023-03-23T06:14:24;98658.08;;;5.09;100.00
54872;BME280;43914;57.680;11.982;2023-03-23T06:16:49;98659.35;;;5.08;100.00
54872;BME280;43914;57.680;11.982;2023-03-23T06:19:16;98657.23;;;5.09;100.00
54872;BME280;43914;57.680;11.982;2023-03-23T06:21:42;98650.98;;;5.07;100.00
54872;BME280;43914;57.680;11.982;2023-03-23T06:24:08;98646.41;;;5.09;100.00
54872;BME280;43914;57.680;11.982;2023-03-23T06:26:37;98641.75;;;5.10;100.00
54872;BME280;43914;57.680;11.982;2023-03-23T06:29:04;98638.46;;;5.11;100.00
54872;BME280;43914;57.680;11.982;2023-03-23T06:31:37;98632.66;;;5.14;100.00
54872;BME280;43914;57.680;11.982;2023-03-23T06:34:04;98629.97;;;5.15;100.00
54872;BME280;43914;57.680;11.982;2023-03-23T06:36:30;98625.96;;;5.17;100.00
54872;BME280;43914;57.680;11.982;2023-03-23T06:38:55;98626.29;;;5.20;100.00
54872;BME280;43914;57.680;11.982;2023-03-23T06:41:21;98627.23;;;5.24;100.00
54872;BME280;43914;57.680;11.982;2023-03-23T06:43:47;98624.34;;;5.23;100.00
54872;BME280;43914;57.680;11.982;2023-03-23T06:46:12;98616.30;;;5.21;100.00
54872;BME280;43914;57.680;11.982;2023-03-23T06:48:38;98621.54;;;5.24;100.00
54872;BME280;43914;57.680;11.982;2023-03-23T06:51:04;98621.41;;;5.27;100.00
54872;BME280;43914;57.680;11.982;2023-03-23T06:53:30;98617.24;;;5.30;100.00
54872;BME280;43914;57.680;11.982;2023-03-23T06:55:55;98618.30;;;5.27;100.00
54872;BME280;43914;57.680;11.982;2023-03-23T06:58:22;98615.67;;;5.29;100.00
54872;BME280;43914;57.680;11.982;2023-03-23T07:00:53;98619.05;;;5.31;100.00
54872;BME280;43914;57.680;11.982;2023-03-23T07:03:20;98615.45;;;5.30;100.00
54872;BME280;43914;57.680;11.982;2023-03-23T07:05:46;98616.59;;;5.29;100.00
54872;BME280;43914;57.680;11.982;2023-03-23T07:08:12;98613.48;;;5.30;100.00
54872;BME280;43914;57.680;11.982;2023-03-23T07:10:38;98607.83;;;5.31;100.00
54872;BME280;43914;57.680;11.982;2023-03-23T07:13:04;98603.60;;;5.35;100.00
54872;BME280;43914;57.680;11.982;2023-03-23T07:15:29;98596.64;;;5.37;100.00
54872;BME280;43914;57.680;11.982;2023-03-23T07:17:55;98593.73;;;5.39;100.00
54872;BME280;43914;57.680;11.982;2023-03-23T07:20:20;98584.06;;;5.41;100.00
54872;BME280;43914;57.680;11.982;2023-03-23T07:22:47;98574.23;;;5.41;100.00
54872;BME280;43914;57.680;11.982;2023-03-23T07:25:13;98574.23;;;5.42;100.00
54872;BME280;43914;57.680;11.982;2023-03-23T07:27:38;98572.17;;;5.44;100.00
54872;BME280;43914;57.680;11.982;2023-03-23T07:30:04;98567.30;;;5.45;100.00
54872;BME280;43914;57.680;11.982;2023-03-23T07:32:30;98568.74;;;5.49;100.00
54872;BME280;43914;57.680;11.982;2023-03-23T07:34:56;98570.14;;;5.52;100.00
54872;BME280;43914;57.680;11.982;2023-03-23T07:37:22;98571.41;;;5.55;100.00
54872;BME280;43914;57.680;11.982;2023-03-23T07:39:48;98563.77;;;5.57;100.00
54872;BME280;43914;57.680;11.982;2023-03-23T07:42:13;98563.77;;;5.64;100.00
54872;BME280;43914;57.680;11.982;2023-03-23T07:44:39;98565.20;;;5.72;100.00
54872;BME280;43914;57.680;11.982;2023-03-23T07:47:04;98563.19;;;5.79;100.00
54872;BME280;43914;57.680;11.982;2023-03-23T07:49:30;98562.31;;;5.87;100.00
54872;BME280;43914;57.680;11.982;2023-03-23T07:51:56;98565.20;;;5.96;100.00
54872;BME280;43914;57.680;11.982;2023-03-23T07:54:23;98559.30;;;6.03;100.00
54872;BME280;43914;57.680;11.982;2023-03-23T07:56:48;98567.16;;;6.16;100.00
54872;BME280;43914;57.680;11.982;2023-03-23T07:59:14;98561.20;;;6.25;100.00
54872;BME280;43914;57.680;11.982;2023-03-23T08:01:41;98557.58;;;6.32;100.00
54872;BME280;43914;57.680;11.982;2023-03-23T08:04:06;98555.02;;;6.43;100.00
54872;BME280;43914;57.680;11.982;2023-03-23T08:06:33;98555.14;;;6.51;100.00
54872;BME280;43914;57.680;11.982;2023-03-23T08:08:59;98555.64;;;6.59;100.00
54872;BME280;43914;57.680;11.982;2023-03-23T08:11:26;98554.58;;;6.66;100.00
54872;BME280;43914;57.680;11.982;2023-03-23T08:13:52;98554.42;;;6.73;100.00
54872;BME280;43914;57.680;11.982;2023-03-23T08:16:18;98553.25;;;6.76;100.00
54872;BME280;43914;57.680;11.982;2023-03-23T08:18:45;98546.10;;;6.83;100.00
54872;BME280;43914;57.680;11.982;2023-03-23T08:21:11;98541.27;;;6.95;100.00
54872;BME280;43914;57.680;11.982;2023-03-23T08:23:38;98542.41;;;7.03;100.00
54872;BME280;43914;57.680;11.982;2023-03-23T08:26:06;98541.61;;;7.08;100.00
54872;BME280;43914;57.680;11.982;2023-03-23T08:28:34;98544.58;;;7.12;100.00
54872;BME280;43914;57.680;11.982;2023-03-23T08:31:05;98543.27;;;7.16;100.00
54872;BME280;43914;57.680;11.982;2023-03-23T08:33:32;98540.48;;;7.21;100.00
54872;BME280;43914;57.680;11.982;2023-03-23T08:35:59;98536.70;;;7.25;100.00
54872;BME280;43914;57.680;11.982;2023-03-23T08:38:25;98534.61;;;7.26;100.00
54872;BME280;43914;57.680;11.982;2023-03-23T08:40:50;98537.09;;;7.27;100.00
54872;BME280;43914;57.680;11.982;2023-03-23T08:43:19;98538.66;;;7.27;100.00
54872;BME280;43914;57.680;11.982;2023-03-23T08:45:45;98535.92;;;7.25;100.00
54872;BME280;43914;57.680;11.982;2023-03-23T08:48:10;98535.29;;;7.28;100.00
54872;BME280;43914;57.680;11.982;2023-03-23T08:50:36;98530.31;;;7.28;100.00
54872;BME280;43914;57.680;11.982;2023-03-23T08:53:02;98529.48;;;7.28;100.00
54872;BME280;43914;57.680;11.982;2023-03-23T08:55:28;98523.02;;;7.26;100.00
54872;BME280;43914;57.680;11.982;2023-03-23T08:57:54;98526.38;;;7.26;100.00
54872;BME280;43914;57.680;11.982;2023-03-23T09:00:22;98517.06;;;7.25;100.00
54872;BME280;43914;57.680;11.982;2023-03-23T09:02:51;98514.92;;;7.29;100.00
54872;BME280;43914;57.680;11.982;2023-03-23T09:05:20;98507.45;;;7.35;100.00
54872;BME280;43914;57.680;11.982;2023-03-23T09:07:49;98499.73;;;7.43;100.00
54872;BME280;43914;57.680;11.982;2023-03-23T09:10:15;98490.05;;;7.50;100.00
54872;BME280;43914;57.680;11.982;2023-03-23T09:12:42;98487.77;;;7.59;100.00
54872;BME280;43914;57.680;11.982;2023-03-23T09:15:13;98489.88;;;7.68;100.00
54872;BME280;43914;57.680;11.982;2023-03-23T09:17:43;98490.67;;;7.74;100.00
54872;BME280;43914;57.680;11.982;2023-03-23T09:20:11;98490.59;;;7.77;100.00
54872;BME280;43914;57.680;11.982;2023-03-23T09:22:43;98488.16;;;7.82;100.00
54872;BME280;43914;57.680;11.982;2023-03-23T09:25:16;98485.58;;;7.89;100.00
54872;BME280;43914;57.680;11.982;2023-03-23T09:27:46;98482.66;;;7.93;100.00
54872;BME280;43914;57.680;11.982;2023-03-23T09:30:14;98484.19;;;8.00;100.00
54872;BME280;43914;57.680;11.982;2023-03-23T09:32:40;98482.06;;;7.99;100.00
54872;BME280;43914;57.680;11.982;2023-03-23T09:35:09;98482.95;;;8.00;100.00
54872;BME280;43914;57.680;11.982;2023-03-23T09:37:38;98484.09;;;7.98;100.00
54872;BME280;43914;57.680;11.982;2023-03-23T09:40:06;98478.02;;;7.93;100.00
54872;BME280;43914;57.680;11.982;2023-03-23T09:50:41;98476.67;;;7.79;100.00
54872;BME280;43914;57.680;11.982;2023-03-23T09:53:19;98470.83;;;7.72;100.00
54872;BME280;43914;57.680;11.982;2023-03-23T09:55:46;98473.87;;;7.69;100.00
54872;BME280;43914;57.680;11.982;2023-03-23T09:58:38;98470.19;;;7.62;100.00
54872;BME280;43914;57.680;11.982;2023-03-23T10:01:36;98471.66;;;7.54;100.00
54872;BME280;43914;57.680;11.982;2023-03-23T10:04:07;98474.25;;;7.46;100.00
54872;BME280;43914;57.680;11.982;2023-03-23T10:06:36;98469.13;;;7.39;100.00
54872;BME280;43914;57.680;11.982;2023-03-23T10:09:03;98469.09;;;7.36;100.00
54872;BME280;43914;57.680;11.982;2023-03-23T10:14:33;98460.71;;;7.33;100.00
54872;BME280;43914;57.680;11.982;2023-03-23T10:17:15;98461.05;;;7.32;100.00
54872;BME280;43914;57.680;11.982;2023-03-23T10:22:39;98458.27;;;7.27;100.00
54872;BME280;43914;57.680;11.982;2023-03-23T10:30:37;98440.94;;;7.30;100.00
54872;BME280;43914;57.680;11.982;2023-03-23T10:35:56;98432.31;;;7.35;100.00
54872;BME280;43914;57.680;11.982;2023-03-23T10:38:37;98430.75;;;7.33;100.00
54872;BME280;43914;57.680;11.982;2023-03-23T10:41:08;98429.84;;;7.32;100.00
54872;BME280;43914;57.680;11.982;2023-03-23T10:43:37;98427.99;;;7.33;100.00
54872;BME280;43914;57.680;11.982;2023-03-23T10:46:13;98429.02;;;7.33;100.00
54872;BME280;43914;57.680;11.982;2023-03-23T10:48:41;98426.27;;;7.34;100.00
54872;BME280;43914;57.680;11.982;2023-03-23T10:51:13;98426.60;;;7.31;100.00
54872;BME280;43914;57.680;11.982;2023-03-23T10:53:49;98423.83;;;7.30;100.00
54872;BME280;43914;57.680;11.982;2023-03-23T10:56:26;98421.09;;;7.33;100.00
54872;BME280;43914;57.680;11.982;2023-03-23T10:58:52;98422.27;;;7.38;100.00
54872;BME280;43914;57.680;11.982;2023-03-23T11:01:20;98418.07;;;7.44;100.00
54872;BME280;43914;57.680;11.982;2023-03-23T11:03:53;98421.88;;;7.48;100.00
54872;BME280;43914;57.680;11.982;2023-03-23T11:06:27;98419.88;;;7.48;100.00
54872;BME280;43914;57.680;11.982;2023-03-23T11:09:15;98422.44;;;7.46;100.00
54872;BME280;43914;57.680;11.982;2023-03-23T11:11:48;98417.64;;;7.44;100.00
54872;BME280;43914;57.680;11.982;2023-03-23T11:17:00;98413.95;;;7.44;100.00
54872;BME280;43914;57.680;11.982;2023-03-23T11:19:29;98412.84;;;7.37;100.00
54872;BME280;43914;57.680;11.982;2023-03-23T11:24:43;98417.22;;;7.33;100.00
54872;BME280;43914;57.680;11.982;2023-03-23T11:27:10;98417.42;;;7.33;100.00
54872;BME280;43914;57.680;11.982;2023-03-23T11:32:14;98415.51;;;7.28;100.00
54872;BME280;43914;57.680;11.982;2023-03-23T11:34:43;98413.18;;;7.26;100.00
54872;BME280;43914;57.680;11.982;2023-03-23T11:37:33;98413.46;;;7.22;100.00
54872;BME280;43914;57.680;11.982;2023-03-23T11:42:44;98411.46;;;7.12;100.00
54872;BME280;43914;57.680;11.982;2023-03-23T11:58:15;98414.40;;;6.84;100.00
54872;BME280;43914;57.680;11.982;2023-03-23T12:00:49;98407.36;;;6.77;100.00
54872;BME280;43914;57.680;11.982;2023-03-23T12:06:19;98413.89;;;6.72;100.00
54872;BME280;43914;57.680;11.982;2023-03-23T12:14:27;98415.23;;;6.61;100.00
54872;BME280;43914;57.680;11.982;2023-03-23T12:18:22;98412.30;;;6.58;100.00
54872;BME280;43914;57.680;11.982;2023-03-23T12:41:54;98423.65;;;6.43;100.00
54872;BME280;43914;57.680;11.982;2023-03-23T12:47:39;98428.76;;;6.37;100.00
54872;BME280;43914;57.680;11.982;2023-03-23T12:50:33;98437.22;;;6.38;100.00
54872;BME280;43914;57.680;11.982;2023-03-23T12:53:09;98442.85;;;6.35;100.00
54872;BME280;43914;57.680;11.982;2023-03-23T12:55:45;98438.52;;;6.33;100.00
54872;BME280;43914;57.680;11.982;2023-03-23T12:58:23;98449.15;;;6.34;100.00
54872;BME280;43914;57.680;11.982;2023-03-23T13:01:00;98446.48;;;6.32;100.00
54872;BME280;43914;57.680;11.982;2023-03-23T13:04:10;98466.61;;;6.31;100.00
54872;BME280;43914;57.680;11.982;2023-03-23T13:06:40;98464.78;;;6.26;100.00
54872;BME280;43914;57.680;11.982;2023-03-23T13:09:27;98471.81;;;6.24;100.00
54872;BME280;43914;57.680;11.982;2023-03-23T13:11:56;98480.23;;;6.21;100.00
54872;BME280;43914;57.680;11.982;2023-03-23T13:17:38;98480.16;;;6.21;100.00
54872;BME280;43914;57.680;11.982;2023-03-23T13:21:02;98484.28;;;6.25;100.00
54872;BME280;43914;57.680;11.982;2023-03-23T13:23:28;98489.31;;;6.29;100.00
54872;BME280;43914;57.680;11.982;2023-03-23T13:26:12;98493.64;;;6.33;100.00
54872;BME280;43914;57.680;11.982;2023-03-23T13:28:54;98499.08;;;6.37;100.00
54872;BME280;43914;57.680;11.982;2023-03-23T13:31:34;98506.49;;;6.39;100.00
54872;BME280;43914;57.680;11.982;2023-03-23T13:34:02;98506.58;;;6.42;100.00
54872;BME280;43914;57.680;11.982;2023-03-23T13:36:39;98516.59;;;6.44;100.00
54872;BME280;43914;57.680;11.982;2023-03-23T13:39:17;98519.23;;;6.47;100.00
54872;BME280;43914;57.680;11.982;2023-03-23T13:52:23;98543.38;;;6.53;100.00
54872;BME280;43914;57.680;11.982;2023-03-23T13:54:50;98548.17;;;6.55;100.00
54872;BME280;43914;57.680;11.982;2023-03-23T13:57:35;98551.29;;;6.58;100.00
54872;BME280;43914;57.680;11.982;2023-03-23T14:03:10;98550.86;;;6.68;100.00
54872;BME280;43914;57.680;11.982;2023-03-23T14:05:44;98559.36;;;6.73;100.00
54872;BME280;43914;57.680;11.982;2023-03-23T14:08:23;98560.83;;;6.74;100.00
54872;BME280;43914;57.680;11.982;2023-03-23T14:10:56;98564.58;;;6.79;100.00
54872;BME280;43914;57.680;11.982;2023-03-23T14:16:01;98574.27;;;6.94;100.00
54872;BME280;43914;57.680;11.982;2023-03-23T14:18:32;98580.70;;;7.04;100.00
54872;BME280;43914;57.680;11.982;2023-03-23T14:21:01;98581.20;;;7.15;100.00
54872;BME280;43914;57.680;11.982;2023-03-23T14:23:27;98587.79;;;7.44;100.00
54872;BME280;43914;57.680;11.982;2023-03-23T14:26:01;98585.84;;;7.71;100.00
54872;BME280;43914;57.680;11.982;2023-03-23T14:28:40;98589.62;;;7.86;100.00
54872;BME280;43914;57.680;11.982;2023-03-23T14:31:16;98597.48;;;7.96;100.00
54872;BME280;43914;57.680;11.982;2023-03-23T14:33:43;98601.77;;;8.23;100.00
54872;BME280;43914;57.680;11.982;2023-03-23T14:36:08;98606.73;;;8.55;100.00
54872;BME280;43914;57.680;11.982;2023-03-23T14:38:35;98611.92;;;8.60;100.00
54872;BME280;43914;57.680;11.982;2023-03-23T14:41:02;98612.56;;;8.78;100.00
54872;BME280;43914;57.680;11.982;2023-03-23T14:43:29;98612.14;;;8.95;100.00
54872;BME280;43914;57.680;11.982;2023-03-23T14:45:58;98620.23;;;9.06;100.00
54872;BME280;43914;57.680;11.982;2023-03-23T14:48:25;98622.55;;;9.21;100.00
54872;BME280;43914;57.680;11.982;2023-03-23T14:50:59;98621.07;;;9.68;100.00
54872;BME280;43914;57.680;11.982;2023-03-23T14:56:06;98608.98;;;10.32;100.00
54872;BME280;43914;57.680;11.982;2023-03-23T14:58:38;98620.17;;;10.45;100.00
54872;BME280;43914;57.680;11.982;2023-03-23T15:01:10;98625.70;;;10.40;100.00
54872;BME280;43914;57.680;11.982;2023-03-23T15:03:45;98626.44;;;10.75;100.00
54872;BME280;43914;57.680;11.982;2023-03-23T15:06:18;98624.82;;;11.08;100.00
54872;BME280;43914;57.680;11.982;2023-03-23T15:08:47;98628.70;;;11.06;100.00
54872;BME280;43914;57.680;11.982;2023-03-23T15:13:48;98633.17;;;10.68;100.00
54872;BME280;43914;57.680;11.982;2023-03-23T15:16:22;98639.14;;;10.52;100.00
54872;BME280;43914;57.680;11.982;2023-03-23T15:21:27;98650.02;;;10.12;100.00
54872;BME280;43914;57.680;11.982;2023-03-23T15:23:54;98653.52;;;9.86;100.00